Metar z połowy godziny Komunikat METAR ze strony awiacja.imgw.pl Metar G00 EPWR METAR EPWR 271530Z 16010KT CAVOK 02/M01 Q0995 =